Time;durP1;ratioP1;P1;durP2;ratioP2;P2;SDS_P1;SDS_P2;PMS_P1;PMS_P2;Temp;Humidity;BMP_temperature;BMP_pressure;BME280_temperature;BME280_humidity;BME280_pressure;Samples;Min_cycle;Max_cycle;Signal;HPM_P1;HPM_P2
2022/04/15 00:01:32;;;;;;;1.23;0.50;;;13.60;99.90;;;;;;4943585;29;20024;-88
2022/04/15 00:03:58;;;;;;;3.10;0.70;;;13.50;99.90;;;;;;4929345;29;20161;-88
2022/04/15 00:06:24;;;;;;;1.52;0.60;;;13.60;99.90;;;;;;4908054;29;20036;-88
2022/04/15 00:08:50;;;;;;;2.65;0.70;;;13.50;99.90;;;;;;4925475;29;20119;-88
2022/04/15 00:11:16;;;;;;;2.72;0.70;;;13.50;99.90;;;;;;4908247;29;20483;-88
2022/04/15 00:13:42;;;;;;;1.92;0.75;;;13.30;99.90;;;;;;4908285;29;20032;-88
2022/04/15 00:16:09;;;;;;;1.13;0.57;;;13.50;99.90;;;;;;4907872;29;20052;-87
2022/04/15 00:18:36;;;;;;;2.05;0.80;;;13.50;99.90;;;;;;4908264;29;20032;-88
2022/04/15 00:21:03;;;;;;;2.75;0.80;;;13.40;99.90;;;;;;4907102;29;20028;-87
2022/04/15 00:23:30;;;;;;;2.53;0.80;;;13.50;99.90;;;;;;4906760;29;20032;-88
2022/04/15 00:25:56;;;;;;;2.15;0.63;;;13.40;99.90;;;;;;4924001;29;20024;-87
2022/04/15 00:28:23;;;;;;;1.70;0.98;;;13.40;99.90;;;;;;4903914;29;20119;-87
2022/04/15 00:30:49;;;;;;;1.48;0.63;;;13.40;99.90;;;;;;4919329;29;20021;-89
2022/04/15 00:33:15;;;;;;;2.47;0.80;;;13.50;99.90;;;;;;4904197;29;20029;-88
2022/04/15 00:35:41;;;;;;;2.10;0.75;;;13.50;99.90;;;;;;4905320;29;20060;-88
2022/04/15 00:38:06;;;;;;;2.35;0.77;;;13.70;99.90;;;;;;4923658;29;20487;-87
2022/04/15 00:40:32;;;;;;;3.38;0.98;;;13.60;99.90;;;;;;4923565;29;20036;-89
2022/04/15 00:42:58;;;;;;;1.95;0.70;;;13.50;99.90;;;;;;4906112;29;20169;-88
2022/04/15 00:45:24;;;;;;;1.90;0.60;;;13.50;99.90;;;;;;4907120;29;20400;-87
2022/04/15 00:47:52;;;;;;;2.85;0.80;;;13.50;99.90;;;;;;4923284;29;20040;-87
2022/04/15 00:50:22;;;;;;;1.40;0.68;;;13.50;99.90;;;;;;4914174;29;20056;-88
2022/04/15 00:52:50;;;;;;;2.53;0.90;;;13.60;99.90;;;;;;4942639;29;20034;-87
2022/04/15 00:55:17;;;;;;;2.45;0.70;;;13.50;99.90;;;;;;4937150;29;20028;-88
2022/04/15 00:57:45;;;;;;;1.98;0.80;;;13.40;99.90;;;;;;4924670;29;20051;-86
2022/04/15 01:00:13;;;;;;;0.93;0.50;;;13.40;99.90;;;;;;4911744;29;20039;-87
2022/04/15 01:02:39;;;;;;;1.60;0.70;;;13.40;99.90;;;;;;4938262;29;20036;-88
2022/04/15 01:05:08;;;;;;;1.70;0.80;;;13.40;99.90;;;;;;4935089;29;20032;-88
2022/04/15 01:07:36;;;;;;;1.75;0.73;;;13.40;99.90;;;;;;4913783;29;20032;-89
2022/04/15 01:10:08;;;;;;;2.65;1.10;;;13.40;99.90;;;;;;4938491;29;20031;-88
2022/04/15 01:12:37;;;;;;;1.67;0.80;;;13.40;99.90;;;;;;4918297;29;20497;-88
2022/04/15 01:15:09;;;;;;;2.45;0.70;;;13.40;99.90;;;;;;4902628;29;20551;-89
2022/04/15 01:17:35;;;;;;;2.13;0.80;;;13.40;99.90;;;;;;4902387;29;20037;-88
2022/04/15 01:20:07;;;;;;;1.77;0.80;;;13.40;99.90;;;;;;4903955;29;20029;-89
2022/04/15 01:22:39;;;;;;;1.80;0.70;;;13.40;99.90;;;;;;4904537;29;20039;-89
2022/04/15 01:25:09;;;;;;;2.47;0.90;;;13.40;99.90;;;;;;4898567;29;20474;-89
2022/04/15 01:27:37;;;;;;;2.33;0.80;;;13.50;99.90;;;;;;4908293;29;20037;-89
2022/04/15 01:30:05;;;;;;;4.43;1.05;;;13.40;99.90;;;;;;4906035;29;20048;-89
2022/04/15 01:32:31;;;;;;;2.35;0.88;;;13.40;99.90;;;;;;4925593;29;20493;-89
2022/04/15 01:34:57;;;;;;;3.70;1.20;;;13.50;99.90;;;;;;4917512;29;20020;-88
2022/04/15 01:37:23;;;;;;;4.07;0.80;;;13.40;99.90;;;;;;4916848;29;20024;-87
2022/04/15 01:39:50;;;;;;;2.17;1.15;;;13.50;99.90;;;;;;4904400;29;20416;-87
2022/04/15 01:42:16;;;;;;;2.38;1.00;;;13.40;99.90;;;;;;4888791;29;20028;-87
2022/04/15 01:44:43;;;;;;;2.60;0.95;;;13.40;99.90;;;;;;4919294;29;20040;-87
2022/04/15 01:47:10;;;;;;;5.35;1.30;;;13.40;99.90;;;;;;4921088;29;20711;-86
2022/04/15 01:49:37;;;;;;;4.95;1.40;;;13.40;99.90;;;;;;4906702;29;20028;-88
2022/04/15 01:52:04;;;;;;;3.20;0.80;;;13.40;99.90;;;;;;4906280;29;20111;-87
2022/04/15 01:54:30;;;;;;;2.25;0.90;;;13.30;99.90;;;;;;4902277;29;20032;-87
2022/04/15 01:56:57;;;;;;;3.53;1.20;;;13.30;99.90;;;;;;4888609;29;20035;-87
2022/04/15 01:59:23;;;;;;;1.90;0.75;;;13.30;99.90;;;;;;4905693;29;20024;-87
2022/04/15 02:01:50;;;;;;;1.83;0.77;;;13.30;99.90;;;;;;4914465;29;20082;-86
2022/04/15 02:04:16;;;;;;;2.13;0.90;;;13.40;99.90;;;;;;4925998;29;20027;-87
2022/04/15 02:06:42;;;;;;;1.80;1.10;;;13.40;99.90;;;;;;4914083;29;20032;-88
2022/04/15 02:09:07;;;;;;;3.38;1.00;;;13.30;99.90;;;;;;4923951;29;20035;-87
2022/04/15 02:11:34;;;;;;;3.08;1.08;;;13.30;99.90;;;;;;4924443;29;20118;-88
2022/04/15 02:14:00;;;;;;;2.63;1.08;;;13.30;99.90;;;;;;4945179;29;20083;-88
2022/04/15 02:16:25;;;;;;;2.17;1.00;;;13.30;99.90;;;;;;4918854;29;20070;-87
2022/04/15 02:18:51;;;;;;;2.30;1.00;;;13.20;99.90;;;;;;4945607;29;20063;-88
2022/04/15 02:21:17;;;;;;;3.28;1.05;;;13.20;99.90;;;;;;4943476;29;20042;-88
2022/04/15 02:23:42;;;;;;;3.72;1.30;;;13.20;99.90;;;;;;4945570;29;20027;-88
2022/04/15 02:26:08;;;;;;;3.20;1.20;;;13.10;99.90;;;;;;4935318;29;20025;-89
2022/04/15 02:28:34;;;;;;;3.22;1.20;;;13.10;99.90;;;;;;4909456;29;20036;-87
2022/04/15 02:30:59;;;;;;;4.20;1.15;;;13.10;99.90;;;;;;4926734;29;20087;-88
2022/04/15 02:33:25;;;;;;;4.32;1.27;;;13.00;99.90;;;;;;4908764;29;20032;-89
2022/04/15 02:35:50;;;;;;;2.83;1.33;;;13.10;99.90;;;;;;4909717;29;20255;-88
2022/04/15 02:38:16;;;;;;;2.17;0.93;;;13.00;99.90;;;;;;4925783;29;20036;-89
2022/04/15 02:40:43;;;;;;;2.63;1.15;;;13.00;99.90;;;;;;4918548;29;20094;-87
2022/04/15 02:43:10;;;;;;;2.25;1.00;;;13.00;99.90;;;;;;4935296;29;20048;-89
2022/04/15 02:45:36;;;;;;;3.85;1.48;;;13.10;99.90;;;;;;4893208;29;20048;-89
2022/04/15 02:48:02;;;;;;;3.15;1.25;;;13.00;99.90;;;;;;4913895;29;20027;-89
2022/04/15 02:50:28;;;;;;;6.72;1.02;;;13.00;99.90;;;;;;4945833;29;20024;-89
2022/04/15 02:52:54;;;;;;;2.75;1.10;;;13.10;99.90;;;;;;4933772;29;20032;-90
2022/04/15 02:55:19;;;;;;;3.00;1.10;;;13.00;99.90;;;;;;4925995;29;20116;-89
2022/04/15 02:57:47;;;;;;;2.15;0.80;;;12.90;99.90;;;;;;4938128;29;20083;-88
2022/04/15 03:00:14;;;;;;;2.83;1.00;;;13.00;99.90;;;;;;4923472;29;20040;-89
2022/04/15 03:02:39;;;;;;;1.65;0.80;;;13.00;99.90;;;;;;4911210;29;20060;-89
2022/04/15 03:05:09;;;;;;;1.73;0.70;;;13.00;99.90;;;;;;4925902;29;20060;-89
2022/04/15 03:07:35;;;;;;;2.15;0.90;;;12.90;99.90;;;;;;4923368;29;20028;-89
2022/04/15 03:10:00;;;;;;;2.13;1.00;;;12.90;99.90;;;;;;4908890;29;20028;-88
2022/04/15 03:12:26;;;;;;;3.20;0.82;;;12.80;99.90;;;;;;4908222;29;20399;-89
2022/04/15 03:14:53;;;;;;;1.33;0.70;;;12.80;99.90;;;;;;4921293;29;20102;-88
2022/04/15 03:17:19;;;;;;;2.10;0.85;;;12.70;99.90;;;;;;4924027;29;20066;-88
2022/04/15 03:19:44;;;;;;;2.72;1.00;;;12.70;99.90;;;;;;4927546;29;20063;-89
2022/04/15 03:22:10;;;;;;;2.22;0.85;;;12.70;99.90;;;;;;4918094;29;20028;-89
2022/04/15 03:24:36;;;;;;;2.30;0.93;;;12.70;99.90;;;;;;4893879;29;20065;-88
2022/04/15 03:27:02;;;;;;;6.43;1.05;;;12.60;99.90;;;;;;4919155;29;20031;-89
2022/04/15 03:29:27;;;;;;;2.42;1.05;;;12.50;99.90;;;;;;4912626;29;20095;-89
2022/04/15 03:31:53;;;;;;;1.92;0.95;;;12.50;99.90;;;;;;4927569;29;20032;-89
2022/04/15 03:34:19;;;;;;;3.30;1.20;;;12.50;99.90;;;;;;4926015;29;20123;-89
2022/04/15 03:36:45;;;;;;;2.30;1.00;;;12.40;99.90;;;;;;4927990;29;20024;-89
2022/04/15 03:39:14;;;;;;;1.95;0.80;;;12.40;99.90;;;;;;4935228;29;20063;-87
2022/04/15 03:41:39;;;;;;;2.10;1.02;;;12.40;99.90;;;;;;4938719;29;20016;-89
2022/04/15 03:44:05;;;;;;;2.67;1.08;;;12.40;99.90;;;;;;4937180;29;20026;-89
2022/04/15 03:46:31;;;;;;;3.50;1.23;;;12.30;99.90;;;;;;4947163;29;20093;-88
2022/04/15 03:48:56;;;;;;;6.05;1.40;;;12.30;99.90;;;;;;4939940;29;20039;-89
2022/04/15 03:51:22;;;;;;;2.97;1.42;;;12.30;99.90;;;;;;4943280;29;20020;-88
2022/04/15 03:53:47;;;;;;;3.50;1.08;;;12.20;99.90;;;;;;4934339;29;20027;-90
2022/04/15 03:56:13;;;;;;;3.50;1.05;;;12.20;99.90;;;;;;4944656;29;20047;-89
2022/04/15 03:58:39;;;;;;;2.60;1.05;;;12.20;99.90;;;;;;4915503;29;20032;-89
2022/04/15 04:01:05;;;;;;;2.70;1.08;;;12.10;99.90;;;;;;4911352;29;20031;-89
2022/04/15 04:03:30;;;;;;;2.80;0.93;;;12.10;99.90;;;;;;4938575;29;20039;-88
2022/04/15 04:05:56;;;;;;;2.92;1.02;;;12.10;99.90;;;;;;4923389;29;20032;-90
2022/04/15 04:08:23;;;;;;;1.63;0.80;;;12.00;99.90;;;;;;4927147;29;20024;-89
2022/04/15 04:10:48;;;;;;;2.55;1.10;;;12.00;99.90;;;;;;4942112;29;20522;-89
2022/04/15 04:13:14;;;;;;;3.72;1.20;;;11.90;99.90;;;;;;4926389;29;20051;-89
2022/04/15 04:15:40;;;;;;;3.65;1.65;;;11.80;99.90;;;;;;4929121;29;20068;-88
2022/04/15 04:18:05;;;;;;;3.67;1.15;;;11.80;99.90;;;;;;4924669;29;20113;-88
2022/04/15 04:20:32;;;;;;;2.40;0.98;;;11.80;99.90;;;;;;4906591;29;20031;-88
2022/04/15 04:22:58;;;;;;;2.60;1.10;;;11.80;99.90;;;;;;4933746;29;20098;-88
2022/04/15 04:25:24;;;;;;;6.20;1.17;;;11.80;99.90;;;;;;4908176;29;20024;-89
2022/04/15 04:27:49;;;;;;;2.70;1.42;;;11.80;99.90;;;;;;4910237;29;20055;-89
2022/04/15 04:30:16;;;;;;;3.60;1.52;;;11.70;99.90;;;;;;4935610;29;20098;-87
2022/04/15 04:32:49;;;;;;;2.65;1.23;;;11.70;99.90;;;;;;4933121;29;20024;-88
2022/04/15 04:35:16;;;;;;;2.40;1.20;;;11.70;99.90;;;;;;4917809;29;20057;-89
2022/04/15 04:37:41;;;;;;;3.88;1.40;;;11.70;99.90;;;;;;4919033;29;20024;-88
2022/04/15 04:40:08;;;;;;;5.68;1.40;;;11.70;99.90;;;;;;4938982;29;20032;-89
2022/04/15 04:42:34;;;;;;;3.55;1.75;;;11.70;99.90;;;;;;4935600;29;20095;-89
2022/04/15 04:44:59;;;;;;;3.45;1.67;;;11.60;99.90;;;;;;4920810;29;20214;-88
2022/04/15 04:47:25;;;;;;;3.63;1.42;;;11.60;99.90;;;;;;4917760;23;20154;-88
2022/04/15 04:49:52;;;;;;;4.00;1.70;;;11.60;99.90;;;;;;4867771;29;20021;-88
2022/04/15 04:52:19;;;;;;;3.47;1.60;;;11.60;99.90;;;;;;4886993;29;20052;-88
2022/04/15 04:54:45;;;;;;;2.78;1.42;;;11.60;99.90;;;;;;4869901;29;20028;-88
2022/04/15 04:57:10;;;;;;;2.80;1.33;;;11.60;99.90;;;;;;4864193;29;20029;-87
2022/04/15 04:59:36;;;;;;;3.25;1.55;;;11.80;99.90;;;;;;4879518;29;20388;-87
2022/04/15 05:02:01;;;;;;;4.63;1.67;;;11.70;99.90;;;;;;4875965;29;20021;-87
2022/04/15 05:04:27;;;;;;;4.85;2.10;;;11.70;99.90;;;;;;4875430;29;20077;-87
2022/04/15 05:06:53;;;;;;;3.38;1.40;;;11.70;99.90;;;;;;4875109;29;20033;-88
2022/04/15 05:09:18;;;;;;;2.90;1.50;;;11.90;99.90;;;;;;4856957;29;20021;-88
2022/04/15 05:11:44;;;;;;;5.95;1.98;;;12.00;99.90;;;;;;4876298;29;20375;-88
2022/04/15 05:14:10;;;;;;;3.08;1.48;;;11.90;99.90;;;;;;4859407;29;20025;-88
2022/04/15 05:16:35;;;;;;;3.42;1.52;;;12.00;99.90;;;;;;4874960;29;20070;-89
2022/04/15 05:19:02;;;;;;;2.53;1.27;;;12.00;99.90;;;;;;4874130;29;20029;-89
2022/04/15 05:21:28;;;;;;;3.97;1.77;;;12.00;99.90;;;;;;4876270;29;20047;-89
2022/04/15 05:23:53;;;;;;;3.67;1.48;;;11.90;99.90;;;;;;4859827;29;20029;-89
2022/04/15 05:26:20;;;;;;;5.43;1.83;;;12.00;99.90;;;;;;4876534;29;20024;-89
2022/04/15 05:28:46;;;;;;;4.28;1.75;;;12.00;99.90;;;;;;4872754;29;20033;-89
2022/04/15 05:31:12;;;;;;;3.42;1.65;;;12.10;99.90;;;;;;4862144;29;20025;-89
2022/04/15 05:33:38;;;;;;;3.35;1.52;;;12.20;99.90;;;;;;4865010;29;20025;-89
2022/04/15 05:36:05;;;;;;;3.15;1.67;;;12.30;99.90;;;;;;4859312;29;20029;-89
2022/04/15 05:38:30;;;;;;;3.20;1.60;;;12.40;99.90;;;;;;4874994;29;20029;-89
2022/04/15 05:40:56;;;;;;;5.32;1.50;;;12.40;99.90;;;;;;4859400;29;20391;-89
2022/04/15 05:43:22;;;;;;;3.67;1.80;;;12.50;99.90;;;;;;4876588;29;20036;-88
2022/04/15 05:45:47;;;;;;;3.50;1.40;;;12.80;99.90;;;;;;4875755;29;20033;-89
2022/04/15 05:48:14;;;;;;;3.38;1.40;;;12.70;99.90;;;;;;4862306;29;20110;-89
2022/04/15 05:50:40;;;;;;;3.92;1.55;;;12.80;99.90;;;;;;4877715;29;20021;-89
2022/04/15 05:53:05;;;;;;;4.63;1.67;;;12.90;99.90;;;;;;4877504;29;20519;-88
2022/04/15 05:55:31;;;;;;;5.75;1.80;;;13.00;99.90;;;;;;4865080;29;20036;-89
2022/04/15 05:57:56;;;;;;;3.88;1.70;;;13.10;99.90;;;;;;4866356;29;20036;-88
2022/04/15 06:00:22;;;;;;;3.92;1.10;;;13.20;99.90;;;;;;4882856;29;20112;-89
2022/04/15 06:02:47;;;;;;;3.35;1.17;;;13.30;99.90;;;;;;4882888;29;20060;-89
2022/04/15 06:05:13;;;;;;;3.13;1.33;;;13.50;99.90;;;;;;4865787;29;20029;-89
2022/04/15 06:07:39;;;;;;;3.58;1.55;;;13.50;99.90;;;;;;4865307;29;20111;-89
2022/04/15 06:10:05;;;;;;;2.63;1.35;;;13.60;99.90;;;;;;4862854;29;20040;-89
2022/04/15 06:12:57;;;;;;;2.97;1.30;;;13.70;99.90;;;;;;4877289;29;20064;-89
2022/04/15 06:15:24;;;;;;;3.78;1.77;;;13.70;99.90;;;;;;4879991;29;20115;-89
2022/04/15 06:17:50;;;;;;;4.75;1.60;;;13.90;99.90;;;;;;4862697;29;20036;-88
2022/04/15 06:20:17;;;;;;;3.47;1.90;;;13.90;99.90;;;;;;4869694;29;20500;-88
2022/04/15 06:22:45;;;;;;;3.60;1.42;;;14.20;99.90;;;;;;4893099;29;20029;-88
2022/04/15 06:25:12;;;;;;;3.40;1.60;;;14.10;99.90;;;;;;4892932;29;20036;-89
2022/04/15 06:27:38;;;;;;;4.00;1.65;;;14.10;99.90;;;;;;4897354;29;20092;-88
2022/04/15 06:30:04;;;;;;;3.70;1.60;;;14.30;99.90;;;;;;4892827;29;20099;-88
2022/04/15 06:32:30;;;;;;;2.45;1.27;;;14.20;99.90;;;;;;4865296;29;20035;-89
2022/04/15 06:34:56;;;;;;;2.78;1.23;;;14.20;99.90;;;;;;4879772;29;20112;-89
2022/04/15 06:37:21;;;;;;;3.58;1.75;;;14.20;99.90;;;;;;4875456;29;20037;-88
2022/04/15 06:39:50;;;;;;;4.22;1.80;;;14.20;99.90;;;;;;4862394;29;20037;-90
2022/04/15 06:42:30;;;;;;;3.85;1.85;;;14.30;99.90;;;;;;4860470;29;20121;-90
2022/04/15 06:44:57;;;;;;;5.28;2.55;;;14.40;99.90;;;;;;4864925;29;20083;-89
2022/04/15 06:47:23;;;;;;;5.78;2.45;;;14.40;99.90;;;;;;4878749;29;20037;-89
2022/04/15 06:49:49;;;;;;;5.25;2.20;;;14.40;99.90;;;;;;4863759;29;20395;-89
2022/04/15 06:52:15;;;;;;;5.57;2.45;;;14.30;99.90;;;;;;4861081;29;20029;-89
2022/04/15 06:54:41;;;;;;;4.78;2.45;;;14.40;99.90;;;;;;4865481;29;20033;-90
2022/04/15 06:57:07;;;;;;;4.50;2.10;;;14.60;99.90;;;;;;4861090;29;20120;-90
2022/04/15 06:59:33;;;;;;;5.63;2.22;;;14.50;99.90;;;;;;4877729;29;20121;-89
2022/04/15 07:02:01;;;;;;;7.15;2.80;;;14.70;99.90;;;;;;4874416;29;20098;-89
2022/04/15 07:04:28;;;;;;;5.40;2.40;;;14.90;99.90;;;;;;4860322;29;20037;-88
2022/04/15 07:06:54;;;;;;;4.63;2.17;;;15.00;99.90;;;;;;4875008;29;20029;-89
2022/04/15 07:09:20;;;;;;;5.97;2.42;;;15.20;99.90;;;;;;4859841;29;20029;-89
2022/04/15 07:11:46;;;;;;;6.93;3.42;;;15.20;99.90;;;;;;4875055;29;20049;-89
2022/04/15 07:14:12;;;;;;;5.72;2.97;;;15.40;99.90;;;;;;4858575;29;20040;-88
2022/04/15 07:16:38;;;;;;;6.40;3.17;;;15.40;99.90;;;;;;4873373;29;20040;-89
2022/04/15 07:19:04;;;;;;;5.78;2.78;;;15.40;99.90;;;;;;4874507;29;20035;-89
2022/04/15 07:21:41;;;;;;;6.85;2.90;;;15.60;99.90;;;;;;4874580;29;20421;-89
2022/04/15 07:24:07;;;;;;;5.30;3.20;;;15.60;99.90;;;;;;4862425;29;21004;-89
2022/04/15 07:26:33;;;;;;;8.73;4.20;;;15.70;99.90;;;;;;4860896;29;20051;-88
2022/04/15 07:28:59;;;;;;;6.65;3.70;;;15.80;99.90;;;;;;4861449;29;20453;-88
2022/04/15 07:31:25;;;;;;;7.50;3.47;;;15.90;99.90;;;;;;4875345;29;20021;-88
2022/04/15 07:33:51;;;;;;;7.93;4.05;;;15.90;99.90;;;;;;4870336;29;20025;-88
2022/04/15 07:39:08;;;;;;;7.13;3.30;;;16.40;99.90;;;;;;4876053;29;20033;-89
2022/04/15 07:41:38;;;;;;;6.72;3.60;;;16.20;99.90;;;;;;4873958;29;20060;-89
2022/04/15 07:44:05;;;;;;;6.05;3.90;;;16.30;99.90;;;;;;4873830;29;20049;-88
2022/04/15 07:46:30;;;;;;;8.35;3.50;;;16.40;99.90;;;;;;4856670;29;20094;-89
2022/04/15 07:48:56;;;;;;;8.80;4.72;;;16.50;99.90;;;;;;4850458;29;20033;-88
2022/04/15 07:51:21;;;;;;;6.93;3.25;;;16.60;99.90;;;;;;4867855;29;20057;-89
2022/04/15 07:53:47;;;;;;;7.07;3.35;;;16.70;99.90;;;;;;4864911;29;20021;-89
2022/04/15 07:56:13;;;;;;;7.25;3.63;;;16.90;99.90;;;;;;4875253;29;20033;-89
2022/04/15 07:58:38;;;;;;;7.65;4.03;;;16.90;99.90;;;;;;4853173;29;20140;-89
2022/04/15 08:01:06;;;;;;;5.85;3.60;;;16.90;99.90;;;;;;4858890;29;20488;-89
2022/04/15 08:03:36;;;;;;;5.05;3.03;;;16.80;99.90;;;;;;4862357;29;20026;-89
2022/04/15 08:06:02;;;;;;;6.35;3.40;;;17.00;99.90;;;;;;4857557;29;20051;-88
2022/04/15 08:08:28;;;;;;;6.43;3.63;;;17.20;99.90;;;;;;4857645;29;20032;-89
2022/04/15 08:10:54;;;;;;;7.07;3.50;;;17.30;99.90;;;;;;4868338;29;20599;-89
2022/04/15 08:13:19;;;;;;;6.22;3.80;;;17.30;99.90;;;;;;4872860;29;20060;-88
2022/04/15 08:15:46;;;;;;;5.72;3.25;;;17.50;99.90;;;;;;4852656;29;20036;-89
2022/04/15 08:18:12;;;;;;;8.85;4.03;;;17.60;99.90;;;;;;4861181;29;20067;-89
2022/04/15 08:20:37;;;;;;;8.02;3.70;;;17.50;99.90;;;;;;4873834;29;20116;-88
2022/04/15 08:23:04;;;;;;;8.63;4.25;;;17.60;99.90;;;;;;4868976;29;20119;-89
2022/04/15 08:25:30;;;;;;;6.60;3.92;;;17.70;99.90;;;;;;4858991;29;20087;-88
2022/04/15 08:27:56;;;;;;;7.80;4.15;;;17.80;99.90;;;;;;4870839;29;20029;-88
2022/04/15 08:30:22;;;;;;;8.98;4.47;;;17.90;99.90;;;;;;4855028;29;20025;-88
2022/04/15 08:32:56;;;;;;;10.18;4.90;;;18.00;99.90;;;;;;4862203;29;20034;-89
2022/04/15 08:35:21;;;;;;;6.80;3.90;;;18.10;99.90;;;;;;4864649;29;20022;-89
2022/04/15 08:37:47;;;;;;;8.43;4.00;;;18.10;99.90;;;;;;4868506;29;20506;-90
2022/04/15 08:40:13;;;;;;;7.68;4.57;;;18.30;99.90;;;;;;4869707;29;20076;-89
2022/04/15 08:42:43;;;;;;;7.57;4.28;;;18.50;99.90;;;;;;4871728;29;20108;-89
2022/04/15 08:45:10;;;;;;;9.70;5.30;;;18.60;99.60;;;;;;4872703;29;20040;-89
2022/04/15 08:47:40;;;;;;;6.75;4.50;;;18.60;98.30;;;;;;4868135;29;20077;-89
2022/04/15 08:50:10;;;;;;;7.78;4.32;;;18.50;98.10;;;;;;4874539;29;20025;-89
2022/04/15 08:52:36;;;;;;;7.72;4.45;;;18.60;98.40;;;;;;4860488;29;20036;-89
2022/04/15 08:55:03;;;;;;;9.50;5.05;;;18.70;98.30;;;;;;4875221;29;20093;-89
2022/04/15 08:57:29;;;;;;;8.70;4.65;;;18.80;97.80;;;;;;4860195;29;20036;-89
2022/04/15 08:59:54;;;;;;;9.13;4.57;;;18.70;98.30;;;;;;4859661;29;20033;-88
2022/04/15 09:02:37;;;;;;;8.32;4.72;;;18.80;98.20;;;;;;4877354;29;20037;-88
2022/04/15 09:05:04;;;;;;;8.20;4.53;;;18.90;97.80;;;;;;4861139;29;20178;-89
2022/04/15 09:07:37;;;;;;;7.25;4.45;;;19.20;97.40;;;;;;4858597;29;20033;-90
2022/04/15 09:10:05;;;;;;;7.75;4.28;;;19.30;97.00;;;;;;4868975;29;20496;-89
2022/04/15 09:12:35;;;;;;;7.85;4.60;;;19.30;97.20;;;;;;4853681;29;20037;-90
2022/04/15 09:15:11;;;;;;;7.93;4.82;;;19.10;97.60;;;;;;4855412;29;20022;-90
2022/04/15 09:17:38;;;;;;;9.20;4.68;;;19.20;97.30;;;;;;4869448;29;20033;-89
2022/04/15 09:20:06;;;;;;;8.18;4.10;;;19.40;97.10;;;;;;4870280;29;20033;-90
2022/04/15 09:22:32;;;;;;;7.53;4.90;;;19.50;97.10;;;;;;4867153;29;20120;-89
2022/04/15 09:24:58;;;;;;;11.40;4.93;;;19.20;96.60;;;;;;4862279;29;20029;-89
2022/04/15 09:27:24;;;;;;;7.10;4.25;;;19.10;96.60;;;;;;4863105;29;20467;-88
2022/04/15 09:29:52;;;;;;;9.02;5.20;;;19.30;96.60;;;;;;4865174;29;20104;-91
2022/04/15 09:32:18;;;;;;;8.63;4.80;;;19.10;96.80;;;;;;4864174;29;20040;-88
2022/04/15 09:35:00;;;;;;;7.55;4.85;;;18.80;96.10;;;;;;4860451;29;20029;-88
2022/04/15 09:37:35;;;;;;;7.90;4.78;;;18.80;96.00;;;;;;4854156;29;20038;-88
2022/04/15 09:40:15;;;;;;;10.82;5.60;;;18.80;96.70;;;;;;4874576;29;20040;-88
2022/04/15 09:42:45;;;;;;;8.15;5.03;;;19.10;96.70;;;;;;4858733;29;20057;-90
2022/04/15 09:45:12;;;;;;;8.73;5.43;;;19.40;96.50;;;;;;4862766;29;20052;-90
2022/04/15 09:47:39;;;;;;;9.20;5.57;;;19.50;96.00;;;;;;4868371;29;20093;-89
2022/04/15 09:50:19;;;;;;;9.85;6.25;;;19.30;95.90;;;;;;4871454;29;20040;-89
2022/04/15 09:52:45;;;;;;;8.43;5.15;;;19.30;96.00;;;;;;4851700;29;20170;-89
2022/04/15 09:55:12;;;;;;;9.10;5.55;;;19.60;96.20;;;;;;4869373;29;20203;-89
2022/04/15 09:57:45;;;;;;;9.02;5.53;;;19.70;95.50;;;;;;4872428;29;20620;-89
2022/04/15 10:00:15;;;;;;;9.35;5.32;;;19.80;95.30;;;;;;4852431;29;20073;-89
2022/04/15 10:02:42;;;;;;;8.27;5.05;;;20.00;95.60;;;;;;4857021;29;20030;-89
2022/04/15 10:05:08;;;;;;;9.73;5.43;;;19.90;95.30;;;;;;4846829;29;20074;-88
2022/04/15 10:07:51;;;;;;;9.30;5.63;;;19.70;95.30;;;;;;4862486;29;20037;-88
2022/04/15 10:10:27;;;;;;;8.27;5.15;;;19.70;94.50;;;;;;4879563;29;20083;-88
2022/04/15 10:12:53;;;;;;;9.05;4.88;;;19.60;94.30;;;;;;4868637;29;20024;-87
2022/04/15 10:15:19;;;;;;;8.30;5.40;;;19.80;94.10;;;;;;4858521;29;20084;-88
2022/04/15 10:17:45;;;;;;;9.38;4.80;;;19.60;94.40;;;;;;4867008;29;20654;-88
2022/04/15 10:20:11;;;;;;;7.25;4.07;;;19.60;94.20;;;;;;4871973;29;20025;-88
2022/04/15 10:22:43;;;;;;;7.32;4.32;;;19.60;94.20;;;;;;4855360;29;20500;-88
2022/04/15 10:25:14;;;;;;;8.48;5.00;;;19.70;94.00;;;;;;4861632;29;20037;-87
2022/04/15 10:27:45;;;;;;;9.52;4.82;;;19.70;93.80;;;;;;4874078;29;20086;-88
2022/04/15 10:30:21;;;;;;;7.43;4.18;;;19.60;93.90;;;;;;4857062;29;20405;-89
2022/04/15 10:32:57;;;;;;;6.65;3.88;;;20.00;94.10;;;;;;4878024;29;20050;-89
2022/04/15 10:35:31;;;;;;;7.55;4.65;;;20.20;93.60;;;;;;4858871;29;20097;-88
2022/04/15 10:38:00;;;;;;;7.80;5.00;;;19.90;93.50;;;;;;4871640;29;20030;-89
2022/04/15 10:40:32;;;;;;;9.07;5.57;;;19.70;93.80;;;;;;4847455;29;20033;-89
2022/04/15 10:43:27;;;;;;;7.43;4.63;;;19.90;93.30;;;;;;4863999;29;20044;-89
2022/04/15 10:46:12;;;;;;;8.05;4.45;;;19.70;94.10;;;;;;4854197;29;20053;-89
2022/04/15 10:48:39;;;;;;;7.68;4.32;;;19.70;93.50;;;;;;4870793;29;20122;-89
2022/04/15 10:51:23;;;;;;;7.85;4.22;;;19.70;93.90;;;;;;4864172;29;20120;-88
2022/04/15 10:53:49;;;;;;;8.13;4.30;;;20.00;93.30;;;;;;4867081;29;20021;-86
2022/04/15 10:56:15;;;;;;;6.47;3.67;;;20.30;93.20;;;;;;4847320;29;20076;-88
2022/04/15 11:01:54;;;;;;;6.47;3.70;;;19.70;93.00;;;;;;4893274;29;20064;-89
2022/04/15 11:04:24;;;;;;;6.05;2.88;;;19.50;93.30;;;;;;4890159;29;20024;-88
2022/04/15 11:06:51;;;;;;;5.97;3.20;;;19.60;92.80;;;;;;4904052;29;20024;-88
2022/04/15 11:09:22;;;;;;;7.13;3.47;;;19.90;92.80;;;;;;4911430;29;20511;-88
2022/04/15 11:11:53;;;;;;;6.95;3.38;;;20.10;92.40;;;;;;4902406;29;20032;-88
2022/04/15 11:14:31;;;;;;;6.20;3.53;;;20.30;92.00;;;;;;4907394;29;20029;-88
2022/04/15 11:16:59;;;;;;;5.38;2.92;;;20.20;91.70;;;;;;4903564;29;20036;-89
2022/04/15 11:19:26;;;;;;;7.72;3.30;;;20.20;92.40;;;;;;4906415;29;20029;-90
2022/04/15 11:21:53;;;;;;;5.97;3.13;;;20.30;91.80;;;;;;4903500;29;20036;-89
2022/04/15 11:24:22;;;;;;;6.20;3.35;;;20.40;91.30;;;;;;4906528;29;20024;-88
2022/04/15 11:26:48;;;;;;;5.55;2.88;;;20.50;91.60;;;;;;4903630;29;20041;-88
2022/04/15 11:29:15;;;;;;;6.95;2.83;;;20.80;90.90;;;;;;4903951;29;20028;-88
2022/04/15 11:31:45;;;;;;;4.45;2.75;;;21.00;90.40;;;;;;4902328;29;20087;-89
2022/04/15 11:34:16;;;;;;;5.77;2.67;;;21.30;90.20;;;;;;4903441;29;20044;-89
2022/04/15 11:36:44;;;;;;;5.50;2.88;;;21.20;90.10;;;;;;4904010;29;20039;-89
2022/04/15 11:39:13;;;;;;;5.18;2.67;;;21.10;89.70;;;;;;4902950;29;20040;-91
2022/04/15 11:41:46;;;;;;;5.03;2.90;;;21.20;89.40;;;;;;4904012;29;20024;-88
2022/04/15 11:44:15;;;;;;;4.93;2.67;;;21.30;89.30;;;;;;4906779;29;20571;-90
2022/04/15 11:46:48;;;;;;;5.05;2.78;;;21.50;88.10;;;;;;4908856;29;20415;-89
2022/04/15 11:49:23;;;;;;;5.75;2.75;;;21.70;87.60;;;;;;4919996;29;20032;-90
2022/04/15 11:51:51;;;;;;;6.75;3.40;;;21.90;88.20;;;;;;4916885;29;20306;-89
2022/04/15 11:54:24;;;;;;;6.25;3.35;;;21.50;87.50;;;;;;4921023;29;20025;-89
2022/04/15 11:56:54;;;;;;;6.45;3.08;;;21.00;88.80;;;;;;4910317;29;20028;-89
2022/04/15 11:59:20;;;;;;;5.10;3.45;;;20.70;90.10;;;;;;4907745;29;20096;-89
2022/04/15 12:01:46;;;;;;;6.43;3.60;;;20.20;90.80;;;;;;4902895;29;20060;-89
2022/04/15 12:04:20;;;;;;;6.57;3.60;;;20.20;91.00;;;;;;4906146;29;20052;-89
2022/04/15 12:06:49;;;;;;;5.97;3.45;;;20.60;90.60;;;;;;4907241;29;20033;-89
2022/04/15 12:09:16;;;;;;;7.00;3.97;;;20.90;90.30;;;;;;4918751;29;20124;-89
2022/04/15 12:11:43;;;;;;;6.07;3.25;;;21.50;90.00;;;;;;4904912;29;20510;-89
2022/04/15 12:14:09;;;;;;;6.32;3.22;;;21.90;88.20;;;;;;4904482;29;20039;-89
2022/04/15 12:16:39;;;;;;;7.75;3.33;;;21.70;86.70;;;;;;4905162;29;20418;-89
2022/04/15 12:19:05;;;;;;;8.05;3.40;;;21.80;85.30;;;;;;4904218;29;20029;-89
2022/04/15 12:21:34;;;;;;;5.13;2.63;;;22.20;84.10;;;;;;4903473;29;20042;-88
2022/04/15 12:24:05;;;;;;;4.20;2.33;;;22.10;83.50;;;;;;4899828;29;20030;-88
2022/04/15 12:26:44;;;;;;;4.63;2.00;;;22.30;82.30;;;;;;4902576;29;20025;-90
2022/04/15 12:32:24;;;;;;;3.92;2.03;;;22.60;79.90;;;;;;4899696;29;20062;-89
2022/04/15 12:34:51;;;;;;;4.35;2.72;;;22.60;80.00;;;;;;4901024;29;20104;-89
2022/04/15 12:37:35;;;;;;;5.32;2.92;;;22.30;81.10;;;;;;4903955;29;20120;-89
2022/04/15 12:40:06;;;;;;;7.10;3.20;;;21.80;82.40;;;;;;4897215;29;20052;-88
2022/04/15 12:42:34;;;;;;;5.78;3.60;;;21.30;82.80;;;;;;4903105;29;20110;-88
2022/04/15 12:45:01;;;;;;;5.35;2.95;;;21.00;83.40;;;;;;4902024;29;20112;-89
2022/04/15 12:47:30;;;;;;;5.65;2.88;;;20.90;83.80;;;;;;4900853;29;20128;-89
2022/04/15 12:50:19;;;;;;;5.25;3.20;;;20.60;83.90;;;;;;4903249;29;20039;-89
2022/04/15 12:52:48;;;;;;;6.28;2.80;;;20.40;84.20;;;;;;4901071;29;20024;-89
2022/04/15 12:55:23;;;;;;;4.22;2.20;;;20.80;85.20;;;;;;4900821;29;20185;-89
2022/04/15 12:57:50;;;;;;;4.97;2.05;;;21.20;81.00;;;;;;4902175;29;20040;-90